createdAt,value
2023-05-12T00:00:49.062Z,10.81
2023-05-12T00:03:17.279Z,10.70
2023-05-12T00:05:44.940Z,10.78
2023-05-12T00:08:12.668Z,10.78
2023-05-12T00:10:40.405Z,10.69
2023-05-12T00:13:10.227Z,10.71
2023-05-12T00:15:38.640Z,10.69
2023-05-12T00:18:06.593Z,10.53
2023-05-12T00:20:34.356Z,10.57
2023-05-12T00:23:01.980Z,10.63
2023-05-12T00:25:29.666Z,10.62
2023-05-12T00:27:57.342Z,10.62
2023-05-12T00:30:26.697Z,10.57
2023-05-12T00:32:54.475Z,10.55
2023-05-12T00:35:22.364Z,10.66
2023-05-12T00:37:50.101Z,10.67
2023-05-12T00:40:19.874Z,10.69
2023-05-12T00:42:47.926Z,10.66
2023-05-12T00:45:15.607Z,10.69
2023-05-12T00:47:46.730Z,10.63
2023-05-12T00:50:15.640Z,10.64
2023-05-12T00:52:43.723Z,10.67
2023-05-12T00:55:11.528Z,10.68
2023-05-12T00:57:40.009Z,10.67
2023-05-12T01:00:09.306Z,10.66
2023-05-12T01:02:37.741Z,10.72
2023-05-12T01:05:07.580Z,10.76
2023-05-12T01:07:36.529Z,10.69
2023-05-12T01:10:07.946Z,10.60
2023-05-12T01:12:36.245Z,10.71
2023-05-12T01:15:05.030Z,10.71
2023-05-12T01:17:35.082Z,10.68
2023-05-12T01:20:13.716Z,10.69
2023-05-12T01:22:54.157Z,10.66
2023-05-12T01:25:28.363Z,10.72
2023-05-12T01:27:58.358Z,10.72
2023-05-12T01:30:27.026Z,10.72
2023-05-12T01:32:55.073Z,10.77
2023-05-12T01:35:22.892Z,10.77
2023-05-12T01:37:52.011Z,10.73
2023-05-12T01:40:19.917Z,10.74
2023-05-12T01:42:47.824Z,10.70
2023-05-12T01:45:17.103Z,10.67
2023-05-12T01:47:45.201Z,10.72
2023-05-12T01:50:12.914Z,10.69
2023-05-12T01:52:40.627Z,10.65
2023-05-12T01:55:09.178Z,10.66
2023-05-12T01:57:36.958Z,10.69
2023-05-12T02:00:05.281Z,10.66
2023-05-12T02:02:34.651Z,10.66
2023-05-12T02:05:02.370Z,10.59
2023-05-12T02:07:30.087Z,10.59
2023-05-12T02:09:58.144Z,10.63
2023-05-12T02:12:25.830Z,10.64
2023-05-12T02:14:53.617Z,10.60
2023-05-12T02:17:21.336Z,10.66
2023-05-12T02:19:51.229Z,10.61
2023-05-12T02:22:19.070Z,10.58
2023-05-12T02:24:47.017Z,10.64
2023-05-12T02:27:14.792Z,10.60
2023-05-12T02:29:43.087Z,10.65
2023-05-12T02:32:11.328Z,10.56
2023-05-12T02:34:39.826Z,10.60
2023-05-12T02:37:10.315Z,10.64
2023-05-12T02:39:38.319Z,10.65
2023-05-12T02:42:07.153Z,10.69
2023-05-12T02:44:37.592Z,10.58
2023-05-12T02:47:05.860Z,10.57
2023-05-12T02:49:34.316Z,10.61
2023-05-12T02:52:04.871Z,10.57
2023-05-12T02:54:36.811Z,10.70
2023-05-12T02:57:06.508Z,10.72
2023-05-12T02:59:37.045Z,10.66
2023-05-12T03:02:05.619Z,10.69
2023-05-12T03:04:35.199Z,10.67
2023-05-12T03:07:02.880Z,10.59
2023-05-12T03:09:31.694Z,10.67
2023-05-12T03:12:00.825Z,10.69
2023-05-12T03:14:28.945Z,10.69
2023-05-12T03:16:56.674Z,10.77
2023-05-12T03:19:24.460Z,10.65
2023-05-12T03:21:52.903Z,10.62
2023-05-12T03:24:20.730Z,10.70
2023-05-12T03:26:48.652Z,10.70
2023-05-12T03:29:17.655Z,10.67
2023-05-12T03:31:46.101Z,10.71
2023-05-12T03:34:13.938Z,10.71
2023-05-12T03:36:42.210Z,10.70
2023-05-12T03:39:12.286Z,10.64
2023-05-12T03:41:41.259Z,10.67
2023-05-12T03:44:10.045Z,10.67
2023-05-12T03:46:39.481Z,10.74
2023-05-12T03:49:07.250Z,10.78
2023-05-12T03:51:35.440Z,10.72
2023-05-12T03:54:03.794Z,10.65
2023-05-12T03:56:31.684Z,10.62
2023-05-12T03:59:00.296Z,10.67
2023-05-12T04:01:30.957Z,10.67
2023-05-12T04:04:01.671Z,10.66
2023-05-12T04:06:30.095Z,10.60
2023-05-12T04:08:58.169Z,10.71
2023-05-12T04:11:28.039Z,10.68
2023-05-12T04:13:56.969Z,10.64
2023-05-12T04:16:25.041Z,10.66
2023-05-12T04:18:53.068Z,10.76
2023-05-12T04:21:22.902Z,10.69
2023-05-12T04:23:56.290Z,10.66
2023-05-12T04:26:24.900Z,10.71
2023-05-12T04:28:53.365Z,10.76
2023-05-12T04:31:21.228Z,10.79
2023-05-12T04:33:52.116Z,10.80
2023-05-12T04:36:27.616Z,10.70
2023-05-12T04:38:57.046Z,10.78
2023-05-12T04:41:24.750Z,10.70
2023-05-12T04:46:25.401Z,10.68
2023-05-12T04:48:53.688Z,10.69
2023-05-12T04:51:25.093Z,10.82
2023-05-12T04:53:54.166Z,10.68
2023-05-12T04:56:23.897Z,10.67
2023-05-12T04:58:53.556Z,10.73
2023-05-12T05:01:22.159Z,10.87
2023-05-12T05:03:52.129Z,10.86
2023-05-12T05:06:22.418Z,11.01
2023-05-12T05:08:58.731Z,10.86
2023-05-12T05:11:27.109Z,10.78
2023-05-12T05:13:57.401Z,10.85
2023-05-12T05:16:25.730Z,10.91
2023-05-12T05:18:55.164Z,10.97
2023-05-12T05:21:22.973Z,10.97
2023-05-12T05:23:52.752Z,10.86
2023-05-12T05:26:21.495Z,11.00
2023-05-12T05:28:49.994Z,11.05
2023-05-12T05:31:19.556Z,10.99
2023-05-12T05:33:50.446Z,11.02
2023-05-12T05:36:18.251Z,11.14
2023-05-12T05:38:49.775Z,11.19
2023-05-12T05:41:20.869Z,11.25
2023-05-12T05:43:48.997Z,11.24
2023-05-12T05:46:17.304Z,11.31
2023-05-12T05:48:46.018Z,11.11
2023-05-12T05:51:15.767Z,11.18
2023-05-12T05:53:44.262Z,11.12
2023-05-12T05:56:12.998Z,11.28
2023-05-12T05:58:44.666Z,11.11
2023-05-12T06:01:13.177Z,11.30
2023-05-12T06:03:41.597Z,11.13
2023-05-12T06:06:09.947Z,11.25
2023-05-12T06:08:39.796Z,11.22
2023-05-12T06:11:09.929Z,11.30
2023-05-12T06:13:37.912Z,11.37
2023-05-12T06:16:08.156Z,11.55
2023-05-12T06:18:38.291Z,11.40
2023-05-12T06:21:08.569Z,11.61
2023-05-12T06:23:36.768Z,11.34
2023-05-12T06:26:04.703Z,11.48
2023-05-12T06:28:32.558Z,11.42
2023-05-12T06:31:00.699Z,11.37
2023-05-12T06:33:31.101Z,11.57
2023-05-12T06:36:04.636Z,11.54
2023-05-12T06:38:32.440Z,11.50
2023-05-12T06:41:05.906Z,11.47
2023-05-12T06:43:34.698Z,11.49
2023-05-12T06:46:03.886Z,11.49
2023-05-12T06:48:36.064Z,11.48
2023-05-12T06:51:04.863Z,11.54
2023-05-12T06:53:37.483Z,11.54
2023-05-12T06:56:08.086Z,11.63
2023-05-12T06:58:36.259Z,11.60
2023-05-12T07:01:04.252Z,11.62
2023-05-12T07:03:34.669Z,11.67
2023-05-12T07:06:02.428Z,11.72
2023-05-12T07:08:30.413Z,11.70
2023-05-12T07:11:00.670Z,11.74
2023-05-12T07:13:29.055Z,11.78
2023-05-12T07:15:56.778Z,11.64
2023-05-12T07:18:24.509Z,11.71
2023-05-12T07:20:54.044Z,11.75
2023-05-12T07:23:21.852Z,11.78
2023-05-12T07:25:49.642Z,11.83
2023-05-12T07:28:17.465Z,11.90
2023-05-12T07:30:45.201Z,11.75
2023-05-12T07:33:12.911Z,11.85
2023-05-12T07:35:40.898Z,11.75
2023-05-12T07:38:10.528Z,11.78
2023-05-12T07:40:38.177Z,11.75
2023-05-12T07:43:05.940Z,11.83
2023-05-12T07:45:33.643Z,11.86
2023-05-12T07:48:01.547Z,11.95
2023-05-12T07:50:29.410Z,12.15
2023-05-12T07:52:57.232Z,12.36
2023-05-12T07:55:26.701Z,12.29
2023-05-12T07:57:54.517Z,12.36
2023-05-12T08:00:22.966Z,12.55
2023-05-12T08:02:51.151Z,12.55
2023-05-12T08:05:19.548Z,12.48
2023-05-12T08:07:47.529Z,12.48
2023-05-12T08:10:15.378Z,12.44
2023-05-12T08:12:44.593Z,12.29
2023-05-12T08:15:12.466Z,12.29
2023-05-12T08:17:40.250Z,12.37
2023-05-12T08:20:09.147Z,12.44
2023-05-12T08:22:39.539Z,12.50
2023-05-12T08:25:10.360Z,12.59
2023-05-12T08:27:40.438Z,12.33
2023-05-12T08:30:10.938Z,12.51
2023-05-12T08:32:38.937Z,12.79
2023-05-12T08:35:07.522Z,12.77
2023-05-12T08:37:35.374Z,13.01
2023-05-12T08:40:04.257Z,12.84
2023-05-12T08:42:43.816Z,12.63
2023-05-12T08:45:14.792Z,12.55
2023-05-12T08:47:46.610Z,12.60
2023-05-12T08:50:18.467Z,12.38
2023-05-12T08:52:46.615Z,12.34
2023-05-12T08:55:15.436Z,12.31
2023-05-12T08:57:48.273Z,12.35
2023-05-12T09:00:20.270Z,12.51
2023-05-12T09:02:54.539Z,12.64
2023-05-12T09:05:23.342Z,12.72
2023-05-12T09:07:54.599Z,12.80
2023-05-12T09:10:34.351Z,12.92
2023-05-12T09:13:05.719Z,13.04
2023-05-12T09:15:40.855Z,13.28
2023-05-12T09:18:08.699Z,13.33
2023-05-12T09:20:36.953Z,13.44
2023-05-12T09:23:17.511Z,13.22
2023-05-12T09:25:46.959Z,13.17
2023-05-12T09:28:15.831Z,13.18
2023-05-12T09:30:44.952Z,13.15
2023-05-12T09:33:13.892Z,13.31
2023-05-12T09:35:43.336Z,13.41
2023-05-12T09:38:13.275Z,13.65
2023-05-12T09:40:41.368Z,13.80
2023-05-12T09:43:11.528Z,14.47
2023-05-12T09:45:40.523Z,14.51
2023-05-12T09:48:21.216Z,14.71
2023-05-12T09:50:51.104Z,14.76
2023-05-12T09:53:22.910Z,14.52
2023-05-12T09:55:50.873Z,14.44
2023-05-12T09:58:20.938Z,14.02
2023-05-12T10:03:23.811Z,14.70
2023-05-12T10:05:55.562Z,15.24
2023-05-12T10:08:26.580Z,15.85
2023-05-12T10:10:57.514Z,15.53
2023-05-12T10:13:26.311Z,15.04
2023-05-12T10:15:59.701Z,15.13
2023-05-12T10:18:29.208Z,14.92
2023-05-12T10:20:57.703Z,14.43
2023-05-12T10:23:27.653Z,14.66
2023-05-12T10:25:58.570Z,14.51
2023-05-12T10:28:26.325Z,14.21
2023-05-12T10:30:54.788Z,14.17
2023-05-12T10:33:22.801Z,14.14
2023-05-12T10:35:53.364Z,13.90
2023-05-12T10:38:21.140Z,13.93
2023-05-12T10:40:58.014Z,13.71
2023-05-12T10:43:27.505Z,13.83
2023-05-12T10:46:08.820Z,13.84
2023-05-12T10:48:38.194Z,13.79
2023-05-12T10:51:11.861Z,14.02
2023-05-12T10:53:49.883Z,14.01
2023-05-12T10:56:25.035Z,14.19
2023-05-12T10:59:14.492Z,14.20
2023-05-12T11:01:44.561Z,14.55
2023-05-12T11:04:17.105Z,14.40
2023-05-12T11:06:47.184Z,14.51
2023-05-12T11:09:17.509Z,14.48
2023-05-12T11:11:45.871Z,14.31
2023-05-12T11:14:14.376Z,14.38
2023-05-12T11:16:45.534Z,14.36
2023-05-12T11:19:13.893Z,14.60
2023-05-12T11:21:42.027Z,14.62
2023-05-12T11:24:14.576Z,14.01
2023-05-12T11:26:42.512Z,14.10
2023-05-12T11:29:10.274Z,14.23
2023-05-12T11:31:39.303Z,13.98
2023-05-12T11:34:13.017Z,13.96
2023-05-12T11:36:43.208Z,13.96
2023-05-12T11:39:17.500Z,14.00
2023-05-12T11:41:45.975Z,13.88
2023-05-12T11:44:14.916Z,13.44
2023-05-12T11:46:42.678Z,13.60
2023-05-12T11:49:13.381Z,13.35
2023-05-12T11:51:44.551Z,13.11
2023-05-12T11:54:12.601Z,13.23
2023-05-12T11:56:49.137Z,13.47
2023-05-12T11:59:28.143Z,13.47
2023-05-12T12:01:55.925Z,13.66
2023-05-12T12:04:36.905Z,14.00
2023-05-12T12:07:05.432Z,13.72
2023-05-12T12:09:34.874Z,13.80
2023-05-12T12:12:06.301Z,14.05
2023-05-12T12:14:34.934Z,14.04
2023-05-12T12:17:03.086Z,13.74
2023-05-12T12:19:31.025Z,13.92
2023-05-12T12:21:59.370Z,13.97
2023-05-12T12:24:27.397Z,13.73
2023-05-12T12:26:55.116Z,13.54
2023-05-12T12:29:26.150Z,13.81
2023-05-12T12:31:53.860Z,13.69
2023-05-12T12:34:21.598Z,13.74
2023-05-12T12:36:49.355Z,13.58
2023-05-12T12:39:19.695Z,13.65
2023-05-12T12:41:48.378Z,13.37
2023-05-12T12:44:16.415Z,13.69
2023-05-12T12:46:45.731Z,13.74
2023-05-12T12:49:13.845Z,13.56
2023-05-12T12:51:46.224Z,13.87
2023-05-12T12:54:16.021Z,13.99
2023-05-12T12:56:44.319Z,13.90
2023-05-12T12:59:12.870Z,13.85
2023-05-12T13:01:40.864Z,14.00
2023-05-12T13:04:09.942Z,13.67
2023-05-12T13:06:37.850Z,13.71
2023-05-12T13:09:05.665Z,13.91
2023-05-12T13:11:34.051Z,14.01
2023-05-12T13:14:04.436Z,13.92
2023-05-12T13:16:32.401Z,13.68
2023-05-12T13:19:00.428Z,13.90
2023-05-12T13:21:29.719Z,13.67
2023-05-12T13:23:57.664Z,13.67
2023-05-12T13:26:25.394Z,13.43
2023-05-12T13:28:53.546Z,13.19
2023-05-12T13:31:21.474Z,13.37
2023-05-12T13:33:49.314Z,13.21
2023-05-12T13:36:17.649Z,13.16
2023-05-12T13:38:46.752Z,13.20
2023-05-12T13:41:14.718Z,13.47
2023-05-12T13:43:42.347Z,13.66
2023-05-12T13:46:10.452Z,13.93
2023-05-12T13:48:40.501Z,14.00
2023-05-12T13:51:08.740Z,13.82
2023-05-12T13:53:38.578Z,13.65
2023-05-12T13:56:08.742Z,13.87
2023-05-12T13:58:36.606Z,13.47
2023-05-12T14:01:05.000Z,13.54
2023-05-12T14:03:33.432Z,13.53
2023-05-12T14:06:01.158Z,13.69
2023-05-12T14:08:29.205Z,13.63
2023-05-12T14:10:58.509Z,13.61
2023-05-12T14:13:27.893Z,13.55
2023-05-12T14:15:56.150Z,13.64
2023-05-12T14:18:25.140Z,13.93
2023-05-12T14:20:53.271Z,14.12
2023-05-12T14:23:21.060Z,13.81
2023-05-12T14:25:48.796Z,13.80
2023-05-12T14:28:16.759Z,13.99
2023-05-12T14:30:46.133Z,13.93
2023-05-12T14:33:13.967Z,13.87
2023-05-12T14:35:43.209Z,13.87
2023-05-12T14:38:12.768Z,14.11
2023-05-12T14:40:40.930Z,14.21
2023-05-12T14:43:08.757Z,14.23
2023-05-12T14:45:36.570Z,14.09
2023-05-12T14:48:06.567Z,14.19
2023-05-12T14:50:34.407Z,14.02
2023-05-12T14:53:02.213Z,14.08
2023-05-12T14:55:30.092Z,14.25
2023-05-12T14:57:58.056Z,14.14
2023-05-12T15:00:26.249Z,14.13
2023-05-12T15:02:53.960Z,14.11
2023-05-12T15:05:29.678Z,14.31
2023-05-12T15:08:03.969Z,14.21
2023-05-12T15:10:31.969Z,14.26
2023-05-12T15:12:59.688Z,14.41
2023-05-12T15:15:27.645Z,14.40
2023-05-12T15:17:55.475Z,14.46
2023-05-12T15:20:24.621Z,14.30
2023-05-12T15:22:54.606Z,14.52
2023-05-12T15:25:32.471Z,14.50
2023-05-12T15:28:01.155Z,14.61
2023-05-12T15:30:29.245Z,14.58
2023-05-12T15:32:57.051Z,14.70
2023-05-12T15:35:27.839Z,14.67
2023-05-12T15:37:55.636Z,14.60
2023-05-12T15:40:23.324Z,14.56
2023-05-12T15:42:51.037Z,14.67
2023-05-12T15:45:19.425Z,14.62
2023-05-12T15:47:47.785Z,14.45
2023-05-12T15:50:19.752Z,14.49
2023-05-12T15:52:49.579Z,14.65
2023-05-12T15:55:18.153Z,14.70
2023-05-12T15:57:46.718Z,14.55
2023-05-12T16:00:16.025Z,14.63
2023-05-12T16:02:44.101Z,14.57
2023-05-12T16:05:13.073Z,14.53
2023-05-12T16:07:42.804Z,14.70
2023-05-12T16:10:14.126Z,14.88
2023-05-12T16:12:43.761Z,14.77
2023-05-12T16:15:12.670Z,14.60
2023-05-12T16:17:40.833Z,14.60
2023-05-12T16:20:12.088Z,14.52
2023-05-12T16:22:40.336Z,14.62
2023-05-12T16:25:08.947Z,14.59
2023-05-12T16:27:38.896Z,14.70
2023-05-12T16:30:09.397Z,14.70
2023-05-12T16:32:37.214Z,14.59
2023-05-12T16:35:05.850Z,14.66
2023-05-12T16:37:35.620Z,14.67
2023-05-12T16:40:04.876Z,14.58
2023-05-12T16:42:33.189Z,14.70
2023-05-12T16:45:02.366Z,14.69
2023-05-12T16:47:30.499Z,14.60
2023-05-12T16:49:59.644Z,14.58
2023-05-12T16:52:29.379Z,14.66
2023-05-12T16:54:57.414Z,14.61
2023-05-12T16:57:25.670Z,14.66
2023-05-12T16:59:53.693Z,14.68
2023-05-12T17:02:23.160Z,14.57
2023-05-12T17:04:53.634Z,14.51
2023-05-12T17:07:21.391Z,14.52
2023-05-12T17:09:49.111Z,14.50
2023-05-12T17:12:16.924Z,14.47
2023-05-12T17:14:50.244Z,14.54
2023-05-12T17:17:25.229Z,14.43
2023-05-12T17:19:54.456Z,14.41
2023-05-12T17:22:22.514Z,14.45
2023-05-12T17:24:51.290Z,14.52
2023-05-12T17:27:22.235Z,14.46
2023-05-12T17:29:50.130Z,14.43
2023-05-12T17:32:18.878Z,14.43
2023-05-12T17:34:50.402Z,14.48
2023-05-12T17:37:19.842Z,14.46
2023-05-12T17:39:47.969Z,14.48
2023-05-12T17:42:16.073Z,14.36
2023-05-12T17:44:44.370Z,14.41
2023-05-12T17:47:14.268Z,14.32
2023-05-12T17:49:43.895Z,14.33
2023-05-12T17:52:14.783Z,14.18
2023-05-12T17:54:42.760Z,14.23
2023-05-12T17:57:10.924Z,14.13
2023-05-12T17:59:38.709Z,14.10
2023-05-12T18:02:06.654Z,14.12
2023-05-12T18:04:38.538Z,14.09
2023-05-12T18:07:07.016Z,14.02
2023-05-12T18:09:36.152Z,14.05
2023-05-12T18:12:05.656Z,13.98
2023-05-12T18:14:34.858Z,14.00
2023-05-12T18:17:05.312Z,13.97
2023-05-12T18:19:33.804Z,13.94
2023-05-12T18:22:02.313Z,13.85
2023-05-12T18:24:30.837Z,13.90
2023-05-12T18:27:03.975Z,13.85
2023-05-12T18:29:32.962Z,13.81
2023-05-12T18:32:01.222Z,13.81
2023-05-12T18:34:30.138Z,13.72
2023-05-12T18:36:58.148Z,13.64
2023-05-12T18:39:27.914Z,13.61
2023-05-12T18:41:55.850Z,13.55
2023-05-12T18:44:25.082Z,13.55
2023-05-12T18:46:52.904Z,13.50
2023-05-12T18:49:21.707Z,13.45
2023-05-12T18:51:49.596Z,13.43
2023-05-12T18:54:17.600Z,13.42
2023-05-12T18:56:47.907Z,13.38
2023-05-12T18:59:17.768Z,13.35
2023-05-12T19:01:50.806Z,13.32
2023-05-12T19:04:22.076Z,13.22
2023-05-12T19:06:52.051Z,13.22
2023-05-12T19:12:15.055Z,13.16
2023-05-12T19:14:44.615Z,13.14
2023-05-12T19:17:14.769Z,13.14
2023-05-12T19:19:50.433Z,13.11
2023-05-12T19:22:18.491Z,13.07
2023-05-12T19:24:49.190Z,13.01
2023-05-12T19:27:20.461Z,12.91
2023-05-12T19:29:52.600Z,12.91
2023-05-12T19:32:28.693Z,12.88
2023-05-12T19:35:02.684Z,12.78
2023-05-12T19:37:33.311Z,12.70
2023-05-12T19:40:04.591Z,12.70
2023-05-12T19:42:36.642Z,12.73
2023-05-12T19:45:07.784Z,12.54
2023-05-12T19:47:42.409Z,12.55
2023-05-12T19:50:12.239Z,12.51
2023-05-12T19:52:42.382Z,12.51
2023-05-12T19:55:19.830Z,12.50
2023-05-12T19:57:52.793Z,12.52
2023-05-12T20:00:22.344Z,12.56
2023-05-12T20:02:54.225Z,12.55
2023-05-12T20:05:22.458Z,12.51
2023-05-12T20:07:51.088Z,12.48
2023-05-12T20:10:19.748Z,12.45
2023-05-12T20:12:53.895Z,12.32
2023-05-12T20:15:22.112Z,12.27
2023-05-12T20:17:51.429Z,12.24
2023-05-12T20:20:19.382Z,12.18
2023-05-12T20:22:48.123Z,12.11
2023-05-12T20:25:17.798Z,12.09
2023-05-12T20:27:48.855Z,12.03
2023-05-12T20:30:16.872Z,11.98
2023-05-12T20:32:44.929Z,11.82
2023-05-12T20:35:14.121Z,11.74
2023-05-12T20:37:42.244Z,11.77
2023-05-12T20:40:11.134Z,11.80
2023-05-12T20:42:39.089Z,11.76
2023-05-12T20:45:08.736Z,11.68
2023-05-12T20:47:37.854Z,11.64
2023-05-12T20:50:06.508Z,11.61
2023-05-12T20:52:38.416Z,11.57
2023-05-12T20:55:09.074Z,11.60
2023-05-12T20:57:37.842Z,11.55
2023-05-12T21:00:07.566Z,11.54
2023-05-12T21:02:35.609Z,11.52
2023-05-12T21:05:06.735Z,11.44
2023-05-12T21:07:36.155Z,11.48
2023-05-12T21:10:09.205Z,11.42
2023-05-12T21:12:37.771Z,11.39
2023-05-12T21:15:11.324Z,11.37
2023-05-12T21:17:45.255Z,11.33
2023-05-12T21:20:21.597Z,11.29
2023-05-12T21:22:51.101Z,11.29
2023-05-12T21:25:19.904Z,11.13
2023-05-12T21:27:49.614Z,11.16
2023-05-12T21:30:21.263Z,11.10
2023-05-12T21:32:53.157Z,11.06
2023-05-12T21:35:24.690Z,11.08
2023-05-12T21:37:55.694Z,11.07
2023-05-12T21:40:24.080Z,11.11
2023-05-12T21:43:07.145Z,11.09
2023-05-12T21:45:37.233Z,11.02
2023-05-12T21:48:06.409Z,10.95
2023-05-12T21:50:35.654Z,10.92
2023-05-12T21:53:08.503Z,10.82
2023-05-12T21:55:36.481Z,10.87
2023-05-12T21:58:04.640Z,10.75
2023-05-12T22:00:32.865Z,10.76
2023-05-12T22:03:01.198Z,10.72
2023-05-12T22:05:34.203Z,10.70
2023-05-12T22:08:02.302Z,10.62
2023-05-12T22:10:37.571Z,10.65
2023-05-12T22:13:05.921Z,10.67
2023-05-12T22:15:35.146Z,10.64
2023-05-12T22:18:05.511Z,10.51
2023-05-12T22:20:33.545Z,10.51
2023-05-12T22:23:01.365Z,10.41
2023-05-12T22:25:29.364Z,10.31
2023-05-12T22:27:58.564Z,10.35
2023-05-12T22:30:26.676Z,10.29
2023-05-12T22:32:54.605Z,10.21
2023-05-12T22:35:22.453Z,10.08
2023-05-12T22:37:50.879Z,10.08
2023-05-12T22:40:21.526Z,10.02
2023-05-12T22:42:49.542Z,9.93
2023-05-12T22:45:19.456Z,9.98
2023-05-12T22:47:47.293Z,9.93
2023-05-12T22:50:15.290Z,9.88
2023-05-12T22:52:43.145Z,9.85
2023-05-12T22:55:11.331Z,9.96
2023-05-12T22:57:40.975Z,10.00
2023-05-12T23:00:09.981Z,9.97
2023-05-12T23:02:39.520Z,10.01
2023-05-12T23:05:08.169Z,9.98
2023-05-12T23:07:38.365Z,9.99
2023-05-12T23:10:07.375Z,9.87
2023-05-12T23:12:35.444Z,9.88
2023-05-12T23:15:03.217Z,9.89
2023-05-12T23:17:30.948Z,9.91
2023-05-12T23:20:01.145Z,9.85
2023-05-12T23:22:28.927Z,9.86
2023-05-12T23:24:58.312Z,9.91
2023-05-12T23:27:26.737Z,9.81
2023-05-12T23:29:54.468Z,9.70
2023-05-12T23:32:22.351Z,9.64
2023-05-12T23:34:50.623Z,9.72
2023-05-12T23:37:20.288Z,9.58
2023-05-12T23:39:48.223Z,9.60
2023-05-12T23:42:17.300Z,9.61
2023-05-12T23:44:45.066Z,9.47
2023-05-12T23:47:12.742Z,9.44
2023-05-12T23:49:40.461Z,9.39
2023-05-12T23:52:08.486Z,9.33
2023-05-12T23:54:37.530Z,9.25
2023-05-12T23:57:05.722Z,9.12
2023-05-12T23:59:34.869Z,9.02
